sensor_id;sensor_type;location;lat;lon;timestamp;P1;durP1;ratioP1;P2;durP2;ratioP2
291;SDS011;23311;48.776;9.162;2022-12-07T00:01:18;7.77;;;6.50;;
291;SDS011;23311;48.776;9.162;2022-12-07T00:03:47;9.03;;;6.23;;
291;SDS011;23311;48.776;9.162;2022-12-07T00:06:17;8.90;;;7.00;;
291;SDS011;23311;48.776;9.162;2022-12-07T00:08:46;9.80;;;7.57;;
291;SDS011;23311;48.776;9.162;2022-12-07T00:11:17;9.93;;;7.13;;
291;SDS011;23311;48.776;9.162;2022-12-07T00:13:46;9.30;;;6.50;;
291;SDS011;23311;48.776;9.162;2022-12-07T00:16:14;8.57;;;6.93;;
291;SDS011;23311;48.776;9.162;2022-12-07T00:18:44;10.67;;;7.00;;
291;SDS011;23311;48.776;9.162;2022-12-07T00:21:13;8.97;;;7.43;;
291;SDS011;23311;48.776;9.162;2022-12-07T00:23:43;9.00;;;7.53;;
291;SDS011;23311;48.776;9.162;2022-12-07T00:26:12;9.13;;;7.30;;
291;SDS011;23311;48.776;9.162;2022-12-07T00:28:45;9.30;;;7.70;;
291;SDS011;23311;48.776;9.162;2022-12-07T00:31:15;9.83;;;7.37;;
291;SDS011;23311;48.776;9.162;2022-12-07T00:33:44;9.90;;;8.50;;
291;SDS011;23311;48.776;9.162;2022-12-07T00:36:13;10.60;;;7.37;;
291;SDS011;23311;48.776;9.162;2022-12-07T00:38:51;10.13;;;8.27;;
291;SDS011;23311;48.776;9.162;2022-12-07T00:41:21;8.93;;;7.87;;
291;SDS011;23311;48.776;9.162;2022-12-07T00:43:51;11.23;;;7.70;;
291;SDS011;23311;48.776;9.162;2022-12-07T00:46:20;9.17;;;8.00;;
291;SDS011;23311;48.776;9.162;2022-12-07T00:48:49;11.57;;;7.73;;
291;SDS011;23311;48.776;9.162;2022-12-07T00:51:18;10.87;;;8.37;;
291;SDS011;23311;48.776;9.162;2022-12-07T00:53:48;10.00;;;8.20;;
291;SDS011;23311;48.776;9.162;2022-12-07T00:56:18;12.33;;;8.20;;
291;SDS011;23311;48.776;9.162;2022-12-07T00:58:52;12.40;;;9.40;;
291;SDS011;23311;48.776;9.162;2022-12-07T01:01:23;11.47;;;8.90;;
291;SDS011;23311;48.776;9.162;2022-12-07T01:03:52;8.23;;;7.00;;
291;SDS011;23311;48.776;9.162;2022-12-07T01:06:21;10.03;;;8.47;;
291;SDS011;23311;48.776;9.162;2022-12-07T01:08:50;10.40;;;8.27;;
291;SDS011;23311;48.776;9.162;2022-12-07T01:11:20;10.37;;;8.47;;
291;SDS011;23311;48.776;9.162;2022-12-07T01:13:49;11.27;;;8.60;;
291;SDS011;23311;48.776;9.162;2022-12-07T01:16:19;8.30;;;7.60;;
291;SDS011;23311;48.776;9.162;2022-12-07T01:18:49;9.70;;;7.77;;
291;SDS011;23311;48.776;9.162;2022-12-07T01:21:18;10.03;;;8.70;;
291;SDS011;23311;48.776;9.162;2022-12-07T01:23:47;8.70;;;7.17;;
291;SDS011;23311;48.776;9.162;2022-12-07T01:26:16;10.63;;;8.77;;
291;SDS011;23311;48.776;9.162;2022-12-07T01:28:46;9.67;;;7.90;;
291;SDS011;23311;48.776;9.162;2022-12-07T01:31:15;10.30;;;8.30;;
291;SDS011;23311;48.776;9.162;2022-12-07T01:33:47;11.40;;;7.93;;
291;SDS011;23311;48.776;9.162;2022-12-07T01:36:18;11.30;;;8.40;;
291;SDS011;23311;48.776;9.162;2022-12-07T01:38:48;14.20;;;8.60;;
291;SDS011;23311;48.776;9.162;2022-12-07T01:41:19;12.50;;;9.00;;
291;SDS011;23311;48.776;9.162;2022-12-07T01:44:08;11.30;;;7.83;;
291;SDS011;23311;48.776;9.162;2022-12-07T01:46:38;14.67;;;9.40;;
291;SDS011;23311;48.776;9.162;2022-12-07T01:49:09;11.30;;;8.80;;
291;SDS011;23311;48.776;9.162;2022-12-07T01:51:40;10.93;;;8.67;;
291;SDS011;23311;48.776;9.162;2022-12-07T01:54:10;12.57;;;9.30;;
291;SDS011;23311;48.776;9.162;2022-12-07T01:56:41;10.57;;;8.30;;
291;SDS011;23311;48.776;9.162;2022-12-07T01:59:15;12.23;;;8.73;;
291;SDS011;23311;48.776;9.162;2022-12-07T02:01:45;13.97;;;9.83;;
291;SDS011;23311;48.776;9.162;2022-12-07T02:04:14;12.70;;;9.30;;
291;SDS011;23311;48.776;9.162;2022-12-07T02:06:42;10.90;;;8.80;;
291;SDS011;23311;48.776;9.162;2022-12-07T02:09:11;13.77;;;9.07;;
291;SDS011;23311;48.776;9.162;2022-12-07T02:11:40;12.40;;;9.40;;
291;SDS011;23311;48.776;9.162;2022-12-07T02:14:08;13.17;;;9.07;;
291;SDS011;23311;48.776;9.162;2022-12-07T02:16:38;9.20;;;8.13;;
291;SDS011;23311;48.776;9.162;2022-12-07T02:19:30;11.70;;;8.93;;
291;SDS011;23311;48.776;9.162;2022-12-07T02:22:33;12.00;;;9.17;;
291;SDS011;23311;48.776;9.162;2022-12-07T02:25:33;13.23;;;10.23;;
291;SDS011;23311;48.776;9.162;2022-12-07T02:28:17;10.00;;;8.00;;
291;SDS011;23311;48.776;9.162;2022-12-07T02:30:55;12.47;;;9.10;;
291;SDS011;23311;48.776;9.162;2022-12-07T02:33:31;11.53;;;8.57;;
291;SDS011;23311;48.776;9.162;2022-12-07T02:36:04;10.43;;;8.80;;
291;SDS011;23311;48.776;9.162;2022-12-07T02:38:37;13.50;;;8.80;;
291;SDS011;23311;48.776;9.162;2022-12-07T02:41:11;11.47;;;8.80;;
291;SDS011;23311;48.776;9.162;2022-12-07T02:43:44;10.47;;;8.40;;
291;SDS011;23311;48.776;9.162;2022-12-07T02:46:20;12.93;;;8.63;;
291;SDS011;23311;48.776;9.162;2022-12-07T02:48:52;12.93;;;8.70;;
291;SDS011;23311;48.776;9.162;2022-12-07T02:51:22;12.03;;;8.17;;
291;SDS011;23311;48.776;9.162;2022-12-07T02:53:50;14.80;;;8.93;;
291;SDS011;23311;48.776;9.162;2022-12-07T02:56:19;11.97;;;9.63;;
291;SDS011;23311;48.776;9.162;2022-12-07T02:58:56;11.03;;;8.13;;
291;SDS011;23311;48.776;9.162;2022-12-07T03:01:37;10.97;;;8.80;;
291;SDS011;23311;48.776;9.162;2022-12-07T03:04:14;9.50;;;8.33;;
291;SDS011;23311;48.776;9.162;2022-12-07T03:06:53;8.77;;;7.60;;
291;SDS011;23311;48.776;9.162;2022-12-07T03:09:28;13.87;;;7.30;;
291;SDS011;23311;48.776;9.162;2022-12-07T03:12:04;11.00;;;8.27;;
291;SDS011;23311;48.776;9.162;2022-12-07T03:14:38;10.40;;;8.17;;
291;SDS011;23311;48.776;9.162;2022-12-07T03:17:12;10.43;;;7.43;;
291;SDS011;23311;48.776;9.162;2022-12-07T03:19:44;10.37;;;8.03;;
291;SDS011;23311;48.776;9.162;2022-12-07T03:22:14;10.50;;;7.23;;
291;SDS011;23311;48.776;9.162;2022-12-07T03:24:44;10.70;;;7.87;;
291;SDS011;23311;48.776;9.162;2022-12-07T03:27:19;12.57;;;8.20;;
291;SDS011;23311;48.776;9.162;2022-12-07T03:29:49;11.13;;;7.73;;
291;SDS011;23311;48.776;9.162;2022-12-07T03:32:23;9.40;;;7.50;;
291;SDS011;23311;48.776;9.162;2022-12-07T03:34:57;11.77;;;8.20;;
291;SDS011;23311;48.776;9.162;2022-12-07T03:37:31;10.33;;;9.10;;
291;SDS011;23311;48.776;9.162;2022-12-07T03:40:05;11.97;;;9.50;;
291;SDS011;23311;48.776;9.162;2022-12-07T03:42:39;11.47;;;9.07;;
291;SDS011;23311;48.776;9.162;2022-12-07T03:45:07;10.47;;;8.20;;
291;SDS011;23311;48.776;9.162;2022-12-07T03:47:40;11.67;;;8.97;;
291;SDS011;23311;48.776;9.162;2022-12-07T03:50:14;9.70;;;8.27;;
291;SDS011;23311;48.776;9.162;2022-12-07T03:52:51;9.67;;;7.90;;
291;SDS011;23311;48.776;9.162;2022-12-07T03:55:24;10.37;;;7.60;;
291;SDS011;23311;48.776;9.162;2022-12-07T03:57:56;10.87;;;7.97;;
291;SDS011;23311;48.776;9.162;2022-12-07T04:00:27;9.90;;;7.70;;
291;SDS011;23311;48.776;9.162;2022-12-07T04:02:57;9.70;;;7.20;;
291;SDS011;23311;48.776;9.162;2022-12-07T04:05:25;10.40;;;8.80;;
291;SDS011;23311;48.776;9.162;2022-12-07T04:07:54;8.70;;;7.67;;
291;SDS011;23311;48.776;9.162;2022-12-07T04:10:22;13.53;;;8.30;;
291;SDS011;23311;48.776;9.162;2022-12-07T04:12:50;10.00;;;8.00;;
291;SDS011;23311;48.776;9.162;2022-12-07T04:15:18;10.40;;;7.77;;
291;SDS011;23311;48.776;9.162;2022-12-07T04:17:46;13.23;;;9.00;;
291;SDS011;23311;48.776;9.162;2022-12-07T04:20:15;10.40;;;8.37;;
291;SDS011;23311;48.776;9.162;2022-12-07T04:22:44;11.70;;;8.30;;
291;SDS011;23311;48.776;9.162;2022-12-07T04:25:12;10.23;;;8.17;;
291;SDS011;23311;48.776;9.162;2022-12-07T04:27:40;12.67;;;8.60;;
291;SDS011;23311;48.776;9.162;2022-12-07T04:30:08;11.33;;;8.70;;
291;SDS011;23311;48.776;9.162;2022-12-07T04:32:37;13.23;;;8.50;;
291;SDS011;23311;48.776;9.162;2022-12-07T04:35:05;11.13;;;8.60;;
291;SDS011;23311;48.776;9.162;2022-12-07T04:37:35;9.80;;;7.37;;
291;SDS011;23311;48.776;9.162;2022-12-07T04:40:06;8.83;;;6.40;;
291;SDS011;23311;48.776;9.162;2022-12-07T04:42:37;7.40;;;5.37;;
291;SDS011;23311;48.776;9.162;2022-12-07T04:45:05;7.80;;;5.00;;
291;SDS011;23311;48.776;9.162;2022-12-07T04:47:34;6.10;;;4.53;;
291;SDS011;23311;48.776;9.162;2022-12-07T04:50:03;8.10;;;5.03;;
291;SDS011;23311;48.776;9.162;2022-12-07T04:52:31;8.50;;;6.77;;
291;SDS011;23311;48.776;9.162;2022-12-07T04:55:01;5.93;;;4.60;;
291;SDS011;23311;48.776;9.162;2022-12-07T04:57:29;6.23;;;5.10;;
291;SDS011;23311;48.776;9.162;2022-12-07T04:59:57;5.13;;;4.13;;
291;SDS011;23311;48.776;9.162;2022-12-07T05:02:26;6.47;;;4.87;;
291;SDS011;23311;48.776;9.162;2022-12-07T05:04:54;6.73;;;4.87;;
291;SDS011;23311;48.776;9.162;2022-12-07T05:07:22;8.40;;;5.43;;
291;SDS011;23311;48.776;9.162;2022-12-07T05:09:50;6.20;;;4.03;;
291;SDS011;23311;48.776;9.162;2022-12-07T05:12:19;5.53;;;4.10;;
291;SDS011;23311;48.776;9.162;2022-12-07T05:14:47;6.90;;;4.40;;
291;SDS011;23311;48.776;9.162;2022-12-07T05:17:15;6.27;;;4.20;;
291;SDS011;23311;48.776;9.162;2022-12-07T05:19:43;4.87;;;3.87;;
291;SDS011;23311;48.776;9.162;2022-12-07T05:22:11;4.13;;;3.93;;
291;SDS011;23311;48.776;9.162;2022-12-07T05:24:40;4.77;;;3.87;;
291;SDS011;23311;48.776;9.162;2022-12-07T05:27:08;6.67;;;4.80;;
291;SDS011;23311;48.776;9.162;2022-12-07T05:29:37;5.20;;;4.33;;
291;SDS011;23311;48.776;9.162;2022-12-07T05:32:05;7.63;;;4.67;;
291;SDS011;23311;48.776;9.162;2022-12-07T05:34:33;5.50;;;4.40;;
291;SDS011;23311;48.776;9.162;2022-12-07T05:37:01;5.90;;;4.10;;
291;SDS011;23311;48.776;9.162;2022-12-07T05:39:29;5.57;;;4.07;;
291;SDS011;23311;48.776;9.162;2022-12-07T05:41:57;7.00;;;4.50;;
291;SDS011;23311;48.776;9.162;2022-12-07T05:44:43;7.17;;;5.23;;
291;SDS011;23311;48.776;9.162;2022-12-07T05:47:12;7.23;;;5.63;;
291;SDS011;23311;48.776;9.162;2022-12-07T05:49:41;9.17;;;5.90;;
291;SDS011;23311;48.776;9.162;2022-12-07T05:52:09;10.07;;;6.20;;
291;SDS011;23311;48.776;9.162;2022-12-07T05:54:37;8.67;;;5.70;;
291;SDS011;23311;48.776;9.162;2022-12-07T05:57:05;7.83;;;6.00;;
291;SDS011;23311;48.776;9.162;2022-12-07T05:59:33;8.07;;;6.00;;
291;SDS011;23311;48.776;9.162;2022-12-07T06:02:02;8.13;;;6.30;;
291;SDS011;23311;48.776;9.162;2022-12-07T06:04:33;8.50;;;6.27;;
291;SDS011;23311;48.776;9.162;2022-12-07T06:07:06;8.37;;;5.93;;
291;SDS011;23311;48.776;9.162;2022-12-07T06:09:35;8.33;;;5.87;;
291;SDS011;23311;48.776;9.162;2022-12-07T06:12:04;8.30;;;5.70;;
291;SDS011;23311;48.776;9.162;2022-12-07T06:14:50;9.27;;;7.23;;
291;SDS011;23311;48.776;9.162;2022-12-07T06:17:20;7.50;;;6.00;;
291;SDS011;23311;48.776;9.162;2022-12-07T06:19:48;7.53;;;6.20;;
291;SDS011;23311;48.776;9.162;2022-12-07T06:22:16;10.80;;;6.80;;
291;SDS011;23311;48.776;9.162;2022-12-07T06:24:44;9.10;;;6.60;;
291;SDS011;23311;48.776;9.162;2022-12-07T06:27:12;8.00;;;6.27;;
291;SDS011;23311;48.776;9.162;2022-12-07T06:29:40;7.93;;;6.30;;
291;SDS011;23311;48.776;9.162;2022-12-07T06:32:09;8.03;;;6.40;;
291;SDS011;23311;48.776;9.162;2022-12-07T06:34:39;6.83;;;6.03;;
291;SDS011;23311;48.776;9.162;2022-12-07T06:37:07;8.17;;;6.23;;
291;SDS011;23311;48.776;9.162;2022-12-07T06:39:35;7.80;;;7.00;;
291;SDS011;23311;48.776;9.162;2022-12-07T06:42:03;9.27;;;6.67;;
291;SDS011;23311;48.776;9.162;2022-12-07T06:44:31;8.70;;;6.43;;
291;SDS011;23311;48.776;9.162;2022-12-07T06:46:59;8.53;;;5.87;;
291;SDS011;23311;48.776;9.162;2022-12-07T06:49:49;9.20;;;6.40;;
291;SDS011;23311;48.776;9.162;2022-12-07T06:52:17;8.50;;;5.60;;
291;SDS011;23311;48.776;9.162;2022-12-07T06:54:45;7.83;;;5.40;;
291;SDS011;23311;48.776;9.162;2022-12-07T06:57:13;7.37;;;5.23;;
291;SDS011;23311;48.776;9.162;2022-12-07T06:59:41;7.50;;;5.60;;
291;SDS011;23311;48.776;9.162;2022-12-07T07:02:10;5.53;;;5.10;;
291;SDS011;23311;48.776;9.162;2022-12-07T07:04:38;8.03;;;5.10;;
291;SDS011;23311;48.776;9.162;2022-12-07T07:07:07;7.27;;;5.30;;
291;SDS011;23311;48.776;9.162;2022-12-07T07:09:35;7.17;;;5.53;;
291;SDS011;23311;48.776;9.162;2022-12-07T07:12:03;7.43;;;5.67;;
291;SDS011;23311;48.776;9.162;2022-12-07T07:14:31;6.40;;;5.00;;
291;SDS011;23311;48.776;9.162;2022-12-07T07:17:00;7.03;;;5.33;;
291;SDS011;23311;48.776;9.162;2022-12-07T07:19:28;7.83;;;5.60;;
291;SDS011;23311;48.776;9.162;2022-12-07T07:21:56;9.83;;;6.10;;
291;SDS011;23311;48.776;9.162;2022-12-07T07:24:25;9.57;;;5.60;;
291;SDS011;23311;48.776;9.162;2022-12-07T07:26:53;6.30;;;4.93;;
291;SDS011;23311;48.776;9.162;2022-12-07T07:29:21;7.70;;;5.33;;
291;SDS011;23311;48.776;9.162;2022-12-07T07:31:49;6.23;;;4.80;;
291;SDS011;23311;48.776;9.162;2022-12-07T07:34:17;8.00;;;6.10;;
291;SDS011;23311;48.776;9.162;2022-12-07T07:36:45;8.47;;;5.40;;
291;SDS011;23311;48.776;9.162;2022-12-07T07:39:13;8.20;;;5.67;;
291;SDS011;23311;48.776;9.162;2022-12-07T07:41:43;7.47;;;5.20;;
291;SDS011;23311;48.776;9.162;2022-12-07T07:44:11;6.80;;;5.00;;
291;SDS011;23311;48.776;9.162;2022-12-07T07:46:39;6.83;;;5.30;;
291;SDS011;23311;48.776;9.162;2022-12-07T07:49:08;7.20;;;4.87;;
291;SDS011;23311;48.776;9.162;2022-12-07T07:51:37;6.73;;;5.73;;
291;SDS011;23311;48.776;9.162;2022-12-07T07:54:05;5.67;;;4.57;;
291;SDS011;23311;48.776;9.162;2022-12-07T07:56:33;9.90;;;6.27;;
291;SDS011;23311;48.776;9.162;2022-12-07T07:59:02;12.20;;;6.37;;
291;SDS011;23311;48.776;9.162;2022-12-07T08:01:30;7.90;;;5.87;;
291;SDS011;23311;48.776;9.162;2022-12-07T08:03:59;9.60;;;6.73;;
291;SDS011;23311;48.776;9.162;2022-12-07T08:06:28;9.13;;;5.67;;
291;SDS011;23311;48.776;9.162;2022-12-07T08:08:58;11.20;;;7.07;;
291;SDS011;23311;48.776;9.162;2022-12-07T08:11:26;6.03;;;4.77;;
291;SDS011;23311;48.776;9.162;2022-12-07T08:13:54;7.77;;;4.80;;
291;SDS011;23311;48.776;9.162;2022-12-07T08:16:23;7.90;;;4.80;;
291;SDS011;23311;48.776;9.162;2022-12-07T08:18:51;6.60;;;4.67;;
291;SDS011;23311;48.776;9.162;2022-12-07T08:21:19;6.60;;;5.10;;
291;SDS011;23311;48.776;9.162;2022-12-07T08:23:47;11.30;;;5.50;;
291;SDS011;23311;48.776;9.162;2022-12-07T08:26:16;10.27;;;4.67;;
291;SDS011;23311;48.776;9.162;2022-12-07T08:28:44;7.53;;;5.10;;
291;SDS011;23311;48.776;9.162;2022-12-07T08:31:13;5.50;;;3.53;;
291;SDS011;23311;48.776;9.162;2022-12-07T08:33:45;6.30;;;4.30;;
291;SDS011;23311;48.776;9.162;2022-12-07T08:36:14;10.37;;;5.87;;
291;SDS011;23311;48.776;9.162;2022-12-07T08:38:43;6.90;;;5.07;;
291;SDS011;23311;48.776;9.162;2022-12-07T08:41:31;6.33;;;3.83;;
291;SDS011;23311;48.776;9.162;2022-12-07T08:43:59;6.73;;;4.30;;
291;SDS011;23311;48.776;9.162;2022-12-07T08:46:28;6.53;;;4.43;;
291;SDS011;23311;48.776;9.162;2022-12-07T08:49:03;6.13;;;3.50;;
291;SDS011;23311;48.776;9.162;2022-12-07T08:51:34;6.07;;;4.17;;
291;SDS011;23311;48.776;9.162;2022-12-07T08:54:04;4.30;;;3.30;;
291;SDS011;23311;48.776;9.162;2022-12-07T08:56:34;4.20;;;3.03;;
291;SDS011;23311;48.776;9.162;2022-12-07T08:59:03;5.03;;;3.10;;
291;SDS011;23311;48.776;9.162;2022-12-07T09:01:32;5.03;;;3.70;;
291;SDS011;23311;48.776;9.162;2022-12-07T09:04:00;5.63;;;3.77;;
291;SDS011;23311;48.776;9.162;2022-12-07T09:06:30;4.60;;;3.07;;
291;SDS011;23311;48.776;9.162;2022-12-07T09:08:58;5.97;;;3.40;;
291;SDS011;23311;48.776;9.162;2022-12-07T09:11:28;4.13;;;3.33;;
291;SDS011;23311;48.776;9.162;2022-12-07T09:13:56;4.83;;;3.13;;
291;SDS011;23311;48.776;9.162;2022-12-07T09:16:24;4.43;;;3.40;;
291;SDS011;23311;48.776;9.162;2022-12-07T09:18:52;21.00;;;5.17;;
291;SDS011;23311;48.776;9.162;2022-12-07T09:21:22;7.70;;;4.13;;
291;SDS011;23311;48.776;9.162;2022-12-07T09:23:50;4.20;;;3.47;;
291;SDS011;23311;48.776;9.162;2022-12-07T09:26:18;5.23;;;3.60;;
291;SDS011;23311;48.776;9.162;2022-12-07T09:28:46;4.90;;;3.40;;
291;SDS011;23311;48.776;9.162;2022-12-07T09:31:14;6.07;;;3.27;;
291;SDS011;23311;48.776;9.162;2022-12-07T09:33:54;5.40;;;3.60;;
291;SDS011;23311;48.776;9.162;2022-12-07T09:36:24;4.90;;;2.93;;
291;SDS011;23311;48.776;9.162;2022-12-07T09:38:53;4.80;;;3.53;;
291;SDS011;23311;48.776;9.162;2022-12-07T09:41:21;5.43;;;3.13;;
291;SDS011;23311;48.776;9.162;2022-12-07T09:43:52;6.27;;;3.13;;
291;SDS011;23311;48.776;9.162;2022-12-07T09:46:23;6.77;;;3.30;;
291;SDS011;23311;48.776;9.162;2022-12-07T09:48:52;6.50;;;3.63;;
291;SDS011;23311;48.776;9.162;2022-12-07T09:51:20;3.67;;;2.90;;
291;SDS011;23311;48.776;9.162;2022-12-07T09:53:53;5.87;;;3.33;;
291;SDS011;23311;48.776;9.162;2022-12-07T09:56:23;5.90;;;3.57;;
291;SDS011;23311;48.776;9.162;2022-12-07T09:58:54;5.17;;;3.60;;
291;SDS011;23311;48.776;9.162;2022-12-07T10:01:27;5.83;;;3.83;;
291;SDS011;23311;48.776;9.162;2022-12-07T10:03:59;5.70;;;4.13;;
291;SDS011;23311;48.776;9.162;2022-12-07T10:06:35;5.70;;;3.80;;
291;SDS011;23311;48.776;9.162;2022-12-07T10:09:09;3.40;;;2.87;;
291;SDS011;23311;48.776;9.162;2022-12-07T10:14:25;3.63;;;3.03;;
291;SDS011;23311;48.776;9.162;2022-12-07T10:17:27;6.17;;;2.20;;
291;SDS011;23311;48.776;9.162;2022-12-07T10:20:21;3.57;;;2.70;;
291;SDS011;23311;48.776;9.162;2022-12-07T10:22:54;4.63;;;3.00;;
291;SDS011;23311;48.776;9.162;2022-12-07T10:25:27;5.60;;;3.63;;
291;SDS011;23311;48.776;9.162;2022-12-07T10:27:59;3.27;;;2.60;;
291;SDS011;23311;48.776;9.162;2022-12-07T10:30:29;4.90;;;2.53;;
291;SDS011;23311;48.776;9.162;2022-12-07T10:32:57;5.90;;;3.23;;
291;SDS011;23311;48.776;9.162;2022-12-07T10:35:26;4.33;;;2.50;;
291;SDS011;23311;48.776;9.162;2022-12-07T10:37:56;4.23;;;2.50;;
291;SDS011;23311;48.776;9.162;2022-12-07T10:40:28;3.90;;;2.77;;
291;SDS011;23311;48.776;9.162;2022-12-07T10:43:03;5.33;;;2.83;;
291;SDS011;23311;48.776;9.162;2022-12-07T10:45:34;5.97;;;3.40;;
291;SDS011;23311;48.776;9.162;2022-12-07T10:48:30;4.40;;;2.70;;
291;SDS011;23311;48.776;9.162;2022-12-07T10:51:06;4.40;;;2.90;;
291;SDS011;23311;48.776;9.162;2022-12-07T10:53:51;5.20;;;3.07;;
291;SDS011;23311;48.776;9.162;2022-12-07T10:56:48;3.63;;;2.67;;
291;SDS011;23311;48.776;9.162;2022-12-07T10:59:26;4.27;;;3.00;;
291;SDS011;23311;48.776;9.162;2022-12-07T11:02:23;5.13;;;2.80;;
291;SDS011;23311;48.776;9.162;2022-12-07T11:05:04;3.60;;;2.63;;
291;SDS011;23311;48.776;9.162;2022-12-07T11:07:43;3.93;;;2.40;;
291;SDS011;23311;48.776;9.162;2022-12-07T11:10:23;4.60;;;3.10;;
291;SDS011;23311;48.776;9.162;2022-12-07T11:13:03;4.10;;;2.60;;
291;SDS011;23311;48.776;9.162;2022-12-07T11:15:48;4.53;;;3.30;;
291;SDS011;23311;48.776;9.162;2022-12-07T11:18:31;3.70;;;2.90;;
291;SDS011;23311;48.776;9.162;2022-12-07T11:21:08;6.03;;;3.03;;
291;SDS011;23311;48.776;9.162;2022-12-07T11:23:44;5.90;;;3.17;;
291;SDS011;23311;48.776;9.162;2022-12-07T11:26:19;5.37;;;3.67;;
291;SDS011;23311;48.776;9.162;2022-12-07T11:28:59;4.70;;;2.60;;
291;SDS011;23311;48.776;9.162;2022-12-07T11:31:38;3.57;;;2.57;;
291;SDS011;23311;48.776;9.162;2022-12-07T11:34:22;4.27;;;2.50;;
291;SDS011;23311;48.776;9.162;2022-12-07T11:37:00;2.73;;;2.30;;
291;SDS011;23311;48.776;9.162;2022-12-07T11:39:33;4.60;;;2.27;;
291;SDS011;23311;48.776;9.162;2022-12-07T11:42:05;3.57;;;2.40;;
291;SDS011;23311;48.776;9.162;2022-12-07T11:44:47;4.27;;;2.27;;
291;SDS011;23311;48.776;9.162;2022-12-07T11:47:21;4.50;;;3.00;;
291;SDS011;23311;48.776;9.162;2022-12-07T11:49:56;4.43;;;2.23;;
291;SDS011;23311;48.776;9.162;2022-12-07T11:52:37;2.50;;;2.03;;
291;SDS011;23311;48.776;9.162;2022-12-07T11:55:15;2.60;;;1.73;;
291;SDS011;23311;48.776;9.162;2022-12-07T11:57:50;4.87;;;2.67;;
291;SDS011;23311;48.776;9.162;2022-12-07T12:00:25;3.97;;;2.63;;
291;SDS011;23311;48.776;9.162;2022-12-07T12:02:54;3.33;;;2.73;;
291;SDS011;23311;48.776;9.162;2022-12-07T12:05:29;4.80;;;3.43;;
291;SDS011;23311;48.776;9.162;2022-12-07T12:07:59;4.77;;;3.30;;
291;SDS011;23311;48.776;9.162;2022-12-07T12:10:55;5.30;;;4.10;;
291;SDS011;23311;48.776;9.162;2022-12-07T12:13:46;4.63;;;3.80;;
291;SDS011;23311;48.776;9.162;2022-12-07T12:20:07;4.10;;;3.43;;
291;SDS011;23311;48.776;9.162;2022-12-07T12:22:48;4.70;;;3.90;;
291;SDS011;23311;48.776;9.162;2022-12-07T12:25:21;4.23;;;3.50;;
291;SDS011;23311;48.776;9.162;2022-12-07T12:27:52;5.83;;;4.43;;
291;SDS011;23311;48.776;9.162;2022-12-07T12:30:24;6.80;;;4.80;;
291;SDS011;23311;48.776;9.162;2022-12-07T12:33:05;6.03;;;4.57;;
291;SDS011;23311;48.776;9.162;2022-12-07T12:35:40;7.60;;;4.47;;
291;SDS011;23311;48.776;9.162;2022-12-07T12:38:30;8.77;;;4.70;;
291;SDS011;23311;48.776;9.162;2022-12-07T12:41:01;4.30;;;3.50;;
291;SDS011;23311;48.776;9.162;2022-12-07T12:43:49;7.63;;;3.80;;
291;SDS011;23311;48.776;9.162;2022-12-07T12:58:39;6.93;;;4.80;;
291;SDS011;23311;48.776;9.162;2022-12-07T13:04:17;5.30;;;4.30;;
291;SDS011;23311;48.776;9.162;2022-12-07T13:06:51;5.80;;;3.97;;
291;SDS011;23311;48.776;9.162;2022-12-07T13:09:22;5.27;;;3.50;;
291;SDS011;23311;48.776;9.162;2022-12-07T13:11:57;6.60;;;4.73;;
291;SDS011;23311;48.776;9.162;2022-12-07T13:23:18;4.90;;;3.63;;
291;SDS011;23311;48.776;9.162;2022-12-07T13:25:53;5.33;;;3.80;;
291;SDS011;23311;48.776;9.162;2022-12-07T13:28:27;6.07;;;3.77;;
291;SDS011;23311;48.776;9.162;2022-12-07T13:31:13;5.07;;;3.67;;
291;SDS011;23311;48.776;9.162;2022-12-07T13:33:57;5.20;;;3.03;;
291;SDS011;23311;48.776;9.162;2022-12-07T13:36:25;6.97;;;3.90;;
291;SDS011;23311;48.776;9.162;2022-12-07T13:38:55;4.73;;;3.50;;
291;SDS011;23311;48.776;9.162;2022-12-07T13:41:26;3.87;;;2.63;;
291;SDS011;23311;48.776;9.162;2022-12-07T13:44:00;4.50;;;2.67;;
291;SDS011;23311;48.776;9.162;2022-12-07T13:46:35;4.13;;;2.93;;
291;SDS011;23311;48.776;9.162;2022-12-07T13:49:16;4.30;;;2.57;;
291;SDS011;23311;48.776;9.162;2022-12-07T13:51:46;5.70;;;3.43;;
291;SDS011;23311;48.776;9.162;2022-12-07T13:54:15;4.10;;;2.63;;
291;SDS011;23311;48.776;9.162;2022-12-07T13:56:47;4.50;;;3.03;;
291;SDS011;23311;48.776;9.162;2022-12-07T13:59:17;5.13;;;3.37;;
291;SDS011;23311;48.776;9.162;2022-12-07T14:01:51;5.20;;;3.13;;
291;SDS011;23311;48.776;9.162;2022-12-07T14:04:30;3.43;;;3.00;;
291;SDS011;23311;48.776;9.162;2022-12-07T14:07:21;4.87;;;3.30;;
291;SDS011;23311;48.776;9.162;2022-12-07T14:12:54;6.83;;;3.60;;
291;SDS011;23311;48.776;9.162;2022-12-07T14:18:25;4.10;;;3.07;;
291;SDS011;23311;48.776;9.162;2022-12-07T14:21:19;7.10;;;4.10;;
291;SDS011;23311;48.776;9.162;2022-12-07T14:24:11;9.23;;;4.70;;
291;SDS011;23311;48.776;9.162;2022-12-07T14:26:50;5.57;;;3.80;;
291;SDS011;23311;48.776;9.162;2022-12-07T14:29:28;5.03;;;3.80;;
291;SDS011;23311;48.776;9.162;2022-12-07T14:32:04;5.30;;;3.43;;
291;SDS011;23311;48.776;9.162;2022-12-07T14:34:55;4.30;;;3.50;;
291;SDS011;23311;48.776;9.162;2022-12-07T14:37:26;5.93;;;3.20;;
291;SDS011;23311;48.776;9.162;2022-12-07T14:39:56;6.27;;;4.00;;
291;SDS011;23311;48.776;9.162;2022-12-07T14:42:26;6.27;;;4.10;;
291;SDS011;23311;48.776;9.162;2022-12-07T14:44:58;6.03;;;3.40;;
291;SDS011;23311;48.776;9.162;2022-12-07T14:47:27;5.57;;;4.00;;
291;SDS011;23311;48.776;9.162;2022-12-07T14:50:15;6.00;;;4.30;;
291;SDS011;23311;48.776;9.162;2022-12-07T14:52:45;5.10;;;4.70;;
291;SDS011;23311;48.776;9.162;2022-12-07T14:55:35;5.63;;;3.87;;
291;SDS011;23311;48.776;9.162;2022-12-07T14:58:04;7.53;;;4.87;;
291;SDS011;23311;48.776;9.162;2022-12-07T15:00:33;4.87;;;4.20;;
291;SDS011;23311;48.776;9.162;2022-12-07T15:03:01;6.80;;;5.23;;
291;SDS011;23311;48.776;9.162;2022-12-07T15:05:29;5.30;;;4.43;;
291;SDS011;23311;48.776;9.162;2022-12-07T15:07:57;7.77;;;5.30;;
291;SDS011;23311;48.776;9.162;2022-12-07T15:10:26;8.03;;;4.63;;
291;SDS011;23311;48.776;9.162;2022-12-07T15:12:57;6.07;;;4.40;;
291;SDS011;23311;48.776;9.162;2022-12-07T15:15:48;6.20;;;4.20;;
291;SDS011;23311;48.776;9.162;2022-12-07T15:18:18;5.93;;;4.00;;
291;SDS011;23311;48.776;9.162;2022-12-07T15:20:47;5.87;;;4.30;;
291;SDS011;23311;48.776;9.162;2022-12-07T15:23:15;4.63;;;3.97;;
291;SDS011;23311;48.776;9.162;2022-12-07T15:25:43;6.33;;;4.47;;
291;SDS011;23311;48.776;9.162;2022-12-07T15:28:13;6.00;;;4.17;;
291;SDS011;23311;48.776;9.162;2022-12-07T15:30:42;6.60;;;4.23;;
291;SDS011;23311;48.776;9.162;2022-12-07T15:33:12;4.43;;;3.23;;
291;SDS011;23311;48.776;9.162;2022-12-07T15:35:41;7.23;;;4.60;;
291;SDS011;23311;48.776;9.162;2022-12-07T15:38:11;6.73;;;4.00;;
291;SDS011;23311;48.776;9.162;2022-12-07T15:40:39;7.30;;;4.83;;
291;SDS011;23311;48.776;9.162;2022-12-07T15:43:08;4.73;;;3.60;;
291;SDS011;23311;48.776;9.162;2022-12-07T15:45:56;4.47;;;3.93;;
291;SDS011;23311;48.776;9.162;2022-12-07T15:48:25;6.97;;;4.70;;
291;SDS011;23311;48.776;9.162;2022-12-07T15:51:00;6.70;;;4.30;;
291;SDS011;23311;48.776;9.162;2022-12-07T15:53:29;6.53;;;4.30;;
291;SDS011;23311;48.776;9.162;2022-12-07T15:55:58;6.87;;;5.20;;
291;SDS011;23311;48.776;9.162;2022-12-07T15:58:28;6.27;;;5.10;;
291;SDS011;23311;48.776;9.162;2022-12-07T16:00:58;6.80;;;4.90;;
291;SDS011;23311;48.776;9.162;2022-12-07T16:03:27;8.10;;;5.40;;
291;SDS011;23311;48.776;9.162;2022-12-07T16:05:56;6.97;;;5.40;;
291;SDS011;23311;48.776;9.162;2022-12-07T16:08:27;7.70;;;6.00;;
291;SDS011;23311;48.776;9.162;2022-12-07T16:11:04;9.30;;;7.27;;
291;SDS011;23311;48.776;9.162;2022-12-07T16:13:32;8.40;;;6.17;;
291;SDS011;23311;48.776;9.162;2022-12-07T16:16:02;9.60;;;6.30;;
291;SDS011;23311;48.776;9.162;2022-12-07T16:18:32;9.23;;;5.97;;
291;SDS011;23311;48.776;9.162;2022-12-07T16:21:01;9.70;;;5.77;;